Time;durP1;ratioP1;P1;durP2;ratioP2;P2;SDS_P1;SDS_P2;PMS_P1;PMS_P2;Temp;Humidity;BMP_temperature;BMP_pressure;BME280_temperature;BME280_humidity;BME280_pressure;Samples;Min_cycle;Max_cycle;Signal;HPM_P1;HPM_P2
2021/04/06 00:01:50;;;;;;;9.68;1.90;;;;;;;1.83;76.98;101500.25;5135005;27;20069;-41
2021/04/06 00:04:22;;;;;;;9.75;2.80;;;;;;;1.86;77.52;101523.94;5134887;27;20034;-41
2021/04/06 00:06:51;;;;;;;6.10;1.65;;;;;;;1.74;78.03;101500.19;5134759;27;20072;-41
2021/04/06 00:09:20;;;;;;;6.88;1.40;;;;;;;1.44;78.48;101492.66;5134719;27;20122;-41
2021/04/06 00:11:48;;;;;;;3.70;1.00;;;;;;;1.28;79.22;101491.53;5133082;28;20108;-40
2021/04/06 00:14:16;;;;;;;3.60;0.68;;;;;;;1.22;78.55;101476.19;5134246;27;20031;-41
2021/04/06 00:16:44;;;;;;;2.80;0.98;;;;;;;1.22;78.00;101469.97;5133977;27;20051;-41
2021/04/06 00:19:10;;;;;;;4.25;1.13;;;;;;;1.18;78.51;101464.16;5134505;27;20027;-41
2021/04/06 00:21:37;;;;;;;6.55;1.40;;;;;;;1.19;79.30;101460.50;5134158;27;20034;-41
2021/04/06 00:24:04;;;;;;;6.13;1.10;;;;;;;1.19;79.59;101467.66;5134102;27;20066;-41
2021/04/06 00:27:18;;;;;;;10.55;1.88;;;;;;;1.25;79.19;101472.34;5134107;27;20470;-41
2021/04/06 00:29:54;;;;;;;6.32;1.55;;;;;;;1.27;79.39;101481.88;5070874;28;20039;-41
2021/04/06 00:32:23;;;;;;;11.63;2.30;;;;;;;1.28;79.33;101486.22;5070728;28;20047;-41
2021/04/06 00:34:52;;;;;;;7.40;1.50;;;;;;;1.34;78.21;101484.75;5070932;28;20033;-41
2021/04/06 00:37:18;;;;;;;8.10;2.05;;;;;;;1.35;78.37;101478.41;5070753;28;20036;-41
2021/04/06 00:39:44;;;;;;;;;;;;;;;1.42;78.08;101479.50;5071793;28;20040;-40
2021/04/06 00:42:20;;;;;;;6.97;1.42;;;;;;;1.42;77.07;101478.66;5070403;28;20402;-40
2021/04/06 00:44:52;;;;;;;8.65;1.63;;;;;;;1.42;77.59;101471.50;5071183;28;20487;-41
2021/04/06 00:47:24;;;;;;;5.95;1.45;;;;;;;1.42;77.66;101468.00;5070475;28;20135;-40
2021/04/06 00:49:51;;;;;;;7.38;1.77;;;;;;;1.43;78.34;101483.81;5070546;28;20067;-41
2021/04/06 00:52:17;;;;;;;6.70;1.52;;;;;;;1.41;78.10;101482.28;5070356;28;20049;-40
2021/04/06 00:54:42;;;;;;;8.27;1.70;;;;;;;1.43;77.99;101481.16;5071067;28;20125;-40
2021/04/06 00:57:08;;;;;;;10.37;2.67;;;;;;;1.42;79.11;101482.16;5070461;28;20079;-41
2021/04/06 00:59:34;;;;;;;9.50;1.87;;;;;;;1.42;79.36;101484.00;5070579;28;20032;-40
2021/04/06 01:02:08;;;;;;;7.47;2.00;;;;;;;1.42;79.81;101482.16;5070261;28;20516;-40
2021/04/06 01:04:36;;;;;;;12.98;3.30;;;;;;;1.42;79.74;101484.00;5090639;28;20040;-40
2021/04/06 01:07:13;;;;;;;11.02;2.20;;;;;;;1.42;80.17;101484.00;5133381;27;20138;-40
2021/04/06 01:09:53;;;;;;;9.05;1.90;;;;;;;1.40;79.90;101472.63;5134375;27;20475;-40
2021/04/06 01:12:21;;;;;;;8.35;2.00;;;;;;;1.38;80.65;101482.63;5137430;27;20034;-40
2021/04/06 01:14:49;;;;;;;11.43;2.38;;;;;;;1.38;79.86;101479.94;5137162;27;20038;-40
2021/04/06 01:17:16;;;;;;;12.02;2.20;;;;;;;1.37;80.35;101480.94;5137053;27;20159;-41
2021/04/06 01:19:41;;;;;;;11.88;2.42;;;;;;;1.38;80.27;101486.13;5138195;27;20031;-41
2021/04/06 01:22:09;;;;;;;12.73;2.40;;;;;;;1.35;80.23;101477.59;5137208;27;20023;-41
2021/04/06 01:24:36;;;;;;;12.75;2.42;;;;;;;1.36;80.68;101474.75;5137257;27;20088;-41
2021/04/06 01:27:03;;;;;;;13.82;2.22;;;;;;;1.36;80.19;101484.59;5137203;27;20034;-41
2021/04/06 01:29:29;;;;;;;10.75;2.47;;;;;;;1.36;80.38;101485.41;5137122;27;20027;-40
2021/04/06 01:31:57;;;;;;;12.38;2.60;;;;;;;1.37;80.80;101487.13;5135988;27;20471;-40
2021/04/06 01:34:23;;;;;;;11.85;2.75;;;;;;;1.38;80.51;101494.13;5137134;27;20024;-40
2021/04/06 01:36:50;;;;;;;;;;;;;;;1.48;79.32;101488.69;5137121;27;20483;-41
2021/04/06 01:39:18;;;;;;;;;;;;;;;1.47;79.62;101479.84;5137096;27;19937;-41
2021/04/06 01:41:47;;;;;;;;;;;;;;;1.51;78.45;101475.03;5137320;27;20000;-40
2021/04/06 01:44:13;;;;;;;8.30;2.20;;;;;;;1.48;78.01;101468.19;5137637;27;19979;-40
2021/04/06 01:46:42;;;;;;;14.70;3.63;;;;;;;1.51;77.78;101467.91;5137605;27;20110;-40
2021/04/06 01:49:08;;;;;;;10.55;2.40;;;;;;;1.51;77.18;101462.56;5136945;27;20080;-40
2021/04/06 01:51:34;;;;;;;10.57;2.15;;;;;;;1.51;76.89;101461.69;5136776;27;20031;-40
2021/04/06 01:54:06;;;;;;;8.27;1.97;;;;;;;1.50;76.99;101465.38;5136412;27;20390;-40
2021/04/06 01:56:38;;;;;;;8.70;1.92;;;;;;;1.50;76.34;101460.03;5136360;27;20152;-40
2021/04/06 01:59:08;;;;;;;8.57;1.48;;;;;;;1.52;75.66;101463.41;5136333;27;20030;-41
2021/04/06 02:01:34;;;;;;;9.15;1.95;;;;;;;1.54;75.53;101472.06;5137307;27;20035;-40
2021/04/06 02:04:03;;;;;;;5.75;1.30;;;;;;;1.52;74.78;101469.56;5136554;27;20027;-40
2021/04/06 02:06:31;;;;;;;9.25;1.85;;;;;;;1.54;74.33;101469.41;5135849;27;20122;-41
2021/04/06 02:08:58;;;;;;;4.40;1.00;;;;;;;1.51;75.17;101461.69;5136928;27;20031;-41
2021/04/06 02:11:35;;;;;;;4.05;1.33;;;;;;;1.50;74.89;101463.53;5136691;27;20035;-41
2021/04/06 02:14:16;;;;;;;6.78;1.40;;;;;;;1.49;74.88;101458.38;5136364;27;20031;-40
2021/04/06 02:16:46;;;;;;;7.00;1.58;;;;;;;1.46;75.32;101456.00;5136274;27;20100;-40
2021/04/06 02:19:44;;;;;;;8.23;1.63;;;;;;;1.43;74.68;101457.16;5135843;27;20023;-40
2021/04/06 02:22:15;;;;;;;8.10;1.83;;;;;;;1.41;75.08;101456.47;5135065;27;20417;-40
2021/04/06 02:24:52;;;;;;;8.32;2.00;;;;;;;1.40;75.20;101449.47;5136345;27;20110;-40
2021/04/06 02:27:22;;;;;;;;;;;;;;;1.44;74.85;101456.16;5137019;27;20087;-41
2021/04/06 02:29:50;;;;;;;6.45;1.48;;;;;;;1.37;75.99;101449.81;5136654;27;20267;-40
2021/04/06 02:32:21;;;;;;;12.45;1.70;;;;;;;1.36;75.67;101448.09;5136132;27;20080;-41
2021/04/06 02:34:49;;;;;;;7.75;2.58;;;;;;;1.34;75.66;101451.94;5136398;27;20512;-41
2021/04/06 02:37:27;;;;;;;7.47;1.75;;;;;;;1.32;76.15;101446.78;5135744;27;20027;-41
2021/04/06 02:39:54;;;;;;;10.30;2.03;;;;;;;1.30;76.48;101448.75;5135690;27;20035;-41
2021/04/06 02:42:32;;;;;;;11.60;1.90;;;;;;;1.27;76.24;101444.56;5134634;27;20031;-40
2021/04/06 02:45:11;;;;;;;7.82;1.95;;;;;;;1.26;76.51;101450.88;5136259;27;20027;-41
2021/04/06 02:47:41;;;;;;;9.38;2.00;;;;;;;1.27;76.27;101454.41;5136122;27;20027;-40
2021/04/06 02:50:13;;;;;;;9.10;2.00;;;;;;;1.26;75.99;101450.88;5135751;27;20360;-41
2021/04/06 02:52:39;;;;;;;11.05;1.83;;;;;;;1.25;76.53;101454.53;5135700;27;20019;-41
2021/04/06 02:55:08;;;;;;;13.68;2.63;;;;;;;1.23;76.18;101451.19;5135176;27;20475;-40
2021/04/06 02:57:38;;;;;;;10.82;2.10;;;;;;;1.24;76.02;101455.53;5135564;27;20490;-40
2021/04/06 03:00:04;;;;;;;11.43;2.75;;;;;;;1.24;76.26;101452.03;5135315;27;20106;-41
2021/04/06 03:02:40;;;;;;;13.85;2.08;;;;;;;1.25;76.51;101449.22;5135497;27;20101;-41
2021/04/06 03:05:06;;;;;;;12.50;3.35;;;;;;;1.25;76.56;101446.53;5134840;27;20515;-42
2021/04/06 03:07:32;;;;;;;15.68;2.67;;;;;;;1.25;75.99;101438.53;5135620;27;20054;-41
2021/04/06 03:09:59;;;;;;;12.63;2.73;;;;;;;1.24;76.42;101452.88;5135428;27;20027;-40
2021/04/06 03:12:29;;;;;;;14.00;2.53;;;;;;;1.22;76.57;101452.19;5135078;27;20134;-40
2021/04/06 03:14:56;;;;;;;13.63;2.42;;;;;;;1.20;77.13;101459.50;5135312;27;20075;-40
2021/04/06 03:17:22;;;;;;;;;;;;;;;1.25;76.37;101453.69;5135031;27;20030;-41
2021/04/06 03:19:55;;;;;;;14.20;2.83;;;;;;;1.19;77.20;101460.50;5135597;27;20328;-41
2021/04/06 03:22:20;;;;;;;14.63;2.63;;;;;;;1.17;77.30;101470.47;5133697;27;20114;-41
2021/04/06 03:24:46;;;;;;;12.30;2.17;;;;;;;1.14;77.02;101462.78;5134960;27;20062;-41
2021/04/06 03:27:11;;;;;;;11.03;2.17;;;;;;;1.15;76.63;101466.28;5134962;27;20059;-41
2021/04/06 03:29:36;;;;;;;11.13;2.90;;;;;;;1.15;76.95;101461.78;5134822;27;20031;-40
2021/04/06 03:32:03;;;;;;;14.80;2.83;;;;;;;1.15;77.49;101461.78;5134836;27;20030;-41
2021/04/06 03:34:30;;;;;;;20.38;2.80;;;;;;;1.20;76.76;101479.97;5134146;27;20019;-41
2021/04/06 03:36:56;;;;;;;9.88;2.13;;;;;;;1.21;77.09;101466.50;5134690;27;20038;-40
2021/04/06 03:39:21;;;;;;;8.57;2.05;;;;;;;1.21;77.76;101477.16;5135214;27;20107;-41
2021/04/06 03:41:47;;;;;;;14.80;2.67;;;;;;;1.21;77.71;101493.13;5134770;27;20027;-41
2021/04/06 03:44:13;;;;;;;9.53;2.03;;;;;;;1.20;77.70;101480.81;5133630;27;20031;-41
2021/04/06 03:46:40;;;;;;;8.30;2.00;;;;;;;1.17;79.07;101486.47;5134862;27;20482;-41
2021/04/06 03:49:16;;;;;;;9.90;2.88;;;;;;;1.12;79.68;101471.91;5135071;27;20063;-42
2021/04/06 03:52:03;;;;;;;11.23;2.43;;;;;;;1.08;80.34;101460.75;5134504;27;20113;-41
2021/04/06 03:54:38;;;;;;;11.60;2.40;;;;;;;1.01;81.01;101459.66;5135257;27;20284;-41
2021/04/06 03:57:52;;;;;;;8.88;1.80;;;;;;;0.98;80.87;101460.81;5134752;27;20050;-41
2021/04/06 04:00:18;;;;;;;11.68;2.42;;;;;;;0.87;81.73;101457.53;5134345;27;20031;-41
2021/04/06 04:02:43;;;;;;;10.43;2.88;;;;;;;0.82;81.37;101460.66;5133225;27;20098;-41
2021/04/06 04:05:09;;;;;;;9.03;2.47;;;;;;;0.79;81.90;101454.81;5134699;27;20023;-41
2021/04/06 04:07:36;;;;;;;7.63;2.13;;;;;;;0.74;82.30;101461.44;5134549;27;20055;-41
2021/04/06 04:10:05;;;;;;;10.85;2.50;;;;;;;0.68;81.65;101461.19;5134896;27;20062;-41
2021/04/06 04:12:30;;;;;;;9.73;2.35;;;;;;;0.71;81.90;101458.22;5134466;27;20038;-41
2021/04/06 04:14:58;;;;;;;10.57;2.00;;;;;;;0.71;82.01;101471.53;5134590;27;20023;-41
2021/04/06 04:17:23;;;;;;;5.22;1.80;;;;;;;0.67;81.79;101472.81;5133970;27;20083;-41
2021/04/06 04:19:48;;;;;;;6.45;1.73;;;;;;;0.66;81.60;101471.16;5134618;27;20102;-41
2021/04/06 04:22:14;;;;;;;6.77;1.70;;;;;;;0.66;81.11;101474.66;5134707;27;20039;-41
2021/04/06 04:24:39;;;;;;;6.70;1.70;;;;;;;0.66;80.86;101469.34;5135067;27;20038;-40
2021/04/06 04:27:05;;;;;;;9.23;1.87;;;;;;;0.62;81.35;101473.28;5134481;27;20035;-40
2021/04/06 04:29:30;;;;;;;7.67;1.90;;;;;;;0.64;81.68;101466.00;5134691;27;20027;-41
2021/04/06 04:31:55;;;;;;;8.67;2.23;;;;;;;0.62;81.23;101459.97;5134751;27;20370;-40
2021/04/06 04:34:20;;;;;;;12.70;2.60;;;;;;;0.61;81.42;101462.78;5134139;27;20025;-41
2021/04/06 04:36:46;;;;;;;8.17;2.67;;;;;;;0.58;81.52;101466.56;5134929;27;20031;-41
2021/04/06 04:39:11;;;;;;;10.80;1.50;;;;;;;0.58;80.54;101460.41;5134100;27;20023;-41
2021/04/06 04:41:37;;;;;;;12.17;2.70;;;;;;;0.55;80.65;101464.25;5133976;27;20110;-41
2021/04/06 04:44:02;;;;;;;6.47;1.47;;;;;;;0.57;80.94;101477.38;5134117;27;20455;-40
2021/04/06 04:46:29;;;;;;;6.97;1.65;;;;;;;0.55;80.52;101477.53;5137530;27;20030;-40
2021/04/06 04:48:55;;;;;;;;;;;;;;;0.60;80.45;101477.09;5139190;27;20483;-41
2021/04/06 04:51:20;;;;;;;9.43;2.17;;;;;;;0.51;80.49;101470.84;5138022;27;19990;-41
2021/04/06 04:53:45;;;;;;;10.77;2.10;;;;;;;0.49;80.71;101471.00;5137900;27;20110;-41
2021/04/06 04:56:11;;;;;;;5.43;1.93;;;;;;;0.50;80.77;101471.84;5137920;27;20547;-41
2021/04/06 04:58:36;;;;;;;6.83;1.70;;;;;;;0.49;80.35;101467.50;5137730;27;20031;-40
2021/04/06 05:01:01;;;;;;;6.77;2.00;;;;;;;0.49;80.98;101476.31;5138449;27;20102;-41
2021/04/06 05:03:27;;;;;;;5.57;1.47;;;;;;;0.49;80.83;101471.00;5137272;27;20026;-41
2021/04/06 05:05:52;;;;;;;8.77;2.20;;;;;;;0.48;80.34;101463.16;5137712;27;20374;-40
2021/04/06 05:08:17;;;;;;;11.07;2.00;;;;;;;0.45;81.23;101463.47;5138212;27;20050;-40
2021/04/06 05:10:43;;;;;;;11.50;1.97;;;;;;;0.46;81.46;101459.81;5138192;27;20054;-40
2021/04/06 05:13:08;;;;;;;7.00;1.80;;;;;;;0.43;81.34;101458.28;5138077;27;20023;-40
2021/04/06 05:15:33;;;;;;;6.27;1.30;;;;;;;0.45;81.77;101468.78;5137622;27;20027;-41
2021/04/06 05:17:59;;;;;;;8.30;1.60;;;;;;;0.50;81.26;101471.84;5137503;27;20383;-41
2021/04/06 05:20:24;;;;;;;7.67;1.60;;;;;;;0.52;81.70;101469.84;5137596;27;20031;-41
2021/04/06 05:22:50;;;;;;;9.13;1.67;;;;;;;0.59;82.34;101475.44;5137378;27;20031;-41
2021/04/06 05:25:16;;;;;;;9.45;1.83;;;;;;;0.61;81.82;101476.94;5137297;27;20078;-41
2021/04/06 05:27:41;;;;;;;12.63;2.47;;;;;;;0.64;82.02;101476.66;5137278;27;20031;-41
2021/04/06 05:30:07;;;;;;;10.10;2.00;;;;;;;0.68;82.36;101469.16;5137798;27;20027;-41
2021/04/06 05:32:33;;;;;;;13.80;2.13;;;;;;;0.74;81.51;101461.44;5137105;27;20025;-41
2021/04/06 05:34:58;;;;;;;11.83;2.23;;;;;;;0.80;81.74;101467.97;5137487;27;20031;-41
2021/04/06 05:37:23;;;;;;;8.13;1.40;;;;;;;0.89;81.46;101482.22;5136854;27;20474;-41
2021/04/06 05:39:49;;;;;;;9.63;1.70;;;;;;;0.97;81.76;101484.94;5137124;27;20155;-41
2021/04/06 05:42:14;;;;;;;10.80;2.20;;;;;;;1.08;80.84;101490.03;5136972;27;20023;-41
2021/04/06 05:44:45;;;;;;;8.57;2.00;;;;;;;1.13;81.28;101494.91;5136584;27;20034;-40
2021/04/06 05:47:19;;;;;;;11.23;1.92;;;;;;;1.13;80.64;101490.41;5136529;27;20479;-40
2021/04/06 05:49:45;;;;;;;10.05;2.30;;;;;;;1.13;81.25;101498.41;5136600;27;20038;-42
2021/04/06 05:52:11;;;;;;;7.65;2.03;;;;;;;1.10;81.68;101496.03;5137100;27;20042;-41
2021/04/06 05:54:37;;;;;;;6.75;1.27;;;;;;;1.03;81.95;101495.00;5135155;27;20043;-41
2021/04/06 05:57:03;;;;;;;9.57;1.47;;;;;;;0.94;82.32;101485.25;5136409;27;20119;-40
2021/04/06 05:59:28;;;;;;;5.85;1.90;;;;;;;0.87;82.47;101484.16;5136666;27;20257;-40
2021/04/06 06:01:53;;;;;;;5.57;1.50;;;;;;;0.84;83.18;101474.69;5137148;27;20034;-41
2021/04/06 06:04:19;;;;;;;7.97;1.70;;;;;;;0.82;82.98;101478.47;5136922;27;20413;-41
2021/04/06 06:06:46;;;;;;;5.00;1.27;;;;;;;0.79;82.72;101481.44;5134898;27;20039;-40
2021/04/06 06:09:13;;;;;;;4.75;1.40;;;;;;;0.75;83.56;101480.91;5136214;27;20027;-40
2021/04/06 06:11:57;;;;;;;6.82;1.52;;;;;;;0.72;83.11;101484.69;5136124;27;20030;-40
2021/04/06 06:14:27;;;;;;;6.13;1.58;;;;;;;0.64;83.40;101481.97;5137152;27;20027;-40
2021/04/06 06:16:52;;;;;;;8.10;1.33;;;;;;;0.71;83.67;101484.84;5136385;27;20135;-40
2021/04/06 06:19:18;;;;;;;6.63;1.70;;;;;;;0.79;83.11;101486.78;5136272;27;20451;-41
2021/04/06 06:21:50;;;;;;;6.95;1.55;;;;;;;0.89;82.37;101479.53;5136433;27;20019;-41
2021/04/06 06:24:26;;;;;;;8.32;2.03;;;;;;;1.00;82.61;101489.97;5136662;27;20035;-41
2021/04/06 06:26:52;;;;;;;8.83;1.80;;;;;;;1.02;82.25;101494.16;5136663;27;20023;-40
2021/04/06 06:29:22;;;;;;;6.05;1.60;;;;;;;1.10;81.92;101498.69;5136296;27;20759;-40
2021/04/06 06:31:55;;;;;;;5.43;1.42;;;;;;;1.19;82.51;101502.28;5136308;27;20114;-40
2021/04/06 06:34:37;;;;;;;5.85;1.60;;;;;;;1.24;81.75;101503.50;5135986;27;20023;-40
2021/04/06 06:37:03;;;;;;;6.38;1.77;;;;;;;1.30;82.08;101496.69;5135870;27;20043;-41
2021/04/06 06:39:28;;;;;;;7.70;1.57;;;;;;;1.35;81.00;101501.56;5135756;27;20034;-41
2021/04/06 06:42:04;;;;;;;4.93;1.38;;;;;;;1.41;80.85;101504.44;5135743;27;20031;-41
2021/04/06 06:44:33;;;;;;;6.65;1.83;;;;;;;1.49;81.53;101496.53;5135421;27;20023;-41
2021/04/06 06:47:04;;;;;;;4.18;1.45;;;;;;;1.60;80.97;101489.25;5136157;27;20110;-40
2021/04/06 06:49:38;;;;;;;9.48;1.63;;;;;;;1.78;80.95;101495.38;5135899;27;20031;-40
2021/04/06 06:52:27;;;;;;;4.28;1.33;;;;;;;1.86;80.34;101487.44;5135572;27;20027;-40
2021/04/06 06:54:58;;;;;;;5.65;1.17;;;;;;;1.75;79.69;101490.34;5134903;27;20467;-40
2021/04/06 06:57:35;;;;;;;3.95;1.42;;;;;;;1.74;80.07;101491.34;5135742;27;20444;-40
2021/04/06 07:00:12;;;;;;;7.35;1.50;;;;;;;1.71;80.34;101497.84;5135589;27;20034;-41
2021/04/06 07:02:39;;;;;;;4.60;1.10;;;;;;;1.67;80.22;101492.97;5134983;27;20162;-41
2021/04/06 07:05:08;;;;;;;;;;;;;;;1.74;79.46;101486.84;5135997;27;20083;-40
2021/04/06 07:07:47;;;;;;;3.83;1.25;;;;;;;1.72;79.65;101485.34;5134401;27;20030;-40
2021/04/06 07:10:17;;;;;;;3.80;1.08;;;;;;;1.70;79.88;101487.31;5134813;27;20043;-41
2021/04/06 07:12:46;;;;;;;4.38;1.23;;;;;;;1.64;79.95;101482.63;5133694;27;20391;-40
2021/04/06 07:15:14;;;;;;;7.20;1.25;;;;;;;1.63;80.43;101480.97;5135752;27;20027;-40
2021/04/06 07:17:42;;;;;;;4.75;1.05;;;;;;;1.54;80.02;101472.06;5134844;27;20025;-40
2021/04/06 07:20:11;;;;;;;3.17;1.20;;;;;;;1.52;80.75;101474.91;5134700;27;20028;-40
2021/04/06 07:22:38;;;;;;;5.00;1.20;;;;;;;1.56;80.21;101467.41;5135285;27;20068;-40
2021/04/06 07:25:04;;;;;;;5.82;1.52;;;;;;;1.68;79.81;101471.50;5135003;27;20035;-40
2021/04/06 07:27:30;;;;;;;2.40;0.82;;;;;;;1.80;80.24;101472.03;5134914;27;20068;-41
2021/04/06 07:29:56;;;;;;;4.97;1.50;;;;;;;1.91;79.83;101479.78;5135033;27;20458;-40
2021/04/06 07:32:21;;;;;;;4.55;1.25;;;;;;;2.08;79.40;101469.19;5134852;27;20031;-41
2021/04/06 07:34:46;;;;;;;2.63;1.17;;;;;;;2.21;78.42;101465.09;5135502;27;20027;-40
2021/04/06 07:37:12;;;;;;;4.07;1.40;;;;;;;2.39;78.01;101466.78;5134868;27;20030;-40
2021/04/06 07:39:40;;;;;;;3.23;1.00;;;;;;;2.53;77.34;101476.84;5134847;27;20501;-41
2021/04/06 07:42:06;;;;;;;3.10;1.05;;;;;;;2.59;77.17;101497.56;5134570;27;20110;-41
2021/04/06 07:44:35;;;;;;;4.13;1.10;;;;;;;2.34;77.09;101491.28;5135155;27;20554;-40
2021/04/06 07:47:01;;;;;;;4.90;1.10;;;;;;;2.00;77.83;101500.19;5134877;27;20027;-41
2021/04/06 07:49:27;;;;;;;1.85;0.85;;;;;;;1.75;78.91;101496.50;5134903;27;20035;-40
2021/04/06 07:51:57;;;;;;;5.25;1.40;;;;;;;1.58;79.48;101496.59;5134243;27;20046;-40
2021/04/06 07:54:32;;;;;;;6.32;1.20;;;;;;;1.45;79.42;101496.97;5134886;27;20023;-40
2021/04/06 07:57:02;;;;;;;3.78;1.00;;;;;;;1.33;79.81;101501.72;5135039;27;20027;-40
2021/04/06 07:59:27;;;;;;;5.25;1.40;;;;;;;1.27;80.60;101497.88;5134567;27;20090;-40
2021/04/06 08:01:56;;;;;;;4.87;1.70;;;;;;;1.44;81.23;101503.31;5134445;27;20467;-40
2021/04/06 08:04:47;;;;;;;7.25;1.40;;;;;;;1.73;81.55;101493.19;5134412;27;20042;-41
2021/04/06 08:07:19;;;;;;;4.45;1.15;;;;;;;1.94;80.95;101494.63;5134372;28;20043;-40
2021/04/06 08:09:45;;;;;;;6.07;1.10;;;;;;;2.10;80.30;101494.72;5134129;27;20075;-40
2021/04/06 08:12:26;;;;;;;5.03;1.58;;;;;;;2.28;79.17;101482.09;5134359;27;20027;-40
2021/04/06 08:15:00;;;;;;;6.72;1.33;;;;;;;2.41;78.58;101486.16;5134151;27;20055;-40
2021/04/06 08:17:26;;;;;;;4.45;1.33;;;;;;;2.56;78.71;101473.88;5134336;27;20027;-40
2021/04/06 08:19:54;;;;;;;6.47;1.63;;;;;;;2.72;77.83;101470.38;5137460;27;20032;-40
2021/04/06 08:22:21;;;;;;;6.78;1.48;;;;;;;2.95;78.20;101481.28;5138468;27;20083;-40
2021/04/06 08:24:47;;;;;;;4.70;1.17;;;;;;;3.15;77.47;101477.28;5138479;27;20046;-41
2021/04/06 08:27:39;;;;;;;2.42;1.10;;;;;;;3.45;77.23;101475.75;5138454;27;20035;-41
2021/04/06 08:30:26;;;;;;;4.25;1.23;;;;;;;3.43;75.55;101477.78;5135481;27;20043;-41
2021/04/06 08:35:54;;;;;;;5.53;1.42;;;;;;;3.33;75.31;101482.47;5138912;27;20027;-41
2021/04/06 08:38:28;;;;;;;8.15;1.50;;;;;;;3.28;76.53;101468.75;5139037;27;20027;-41
2021/04/06 08:41:00;;;;;;;7.78;1.60;;;;;;;3.25;74.88;101471.75;5138658;27;20027;-40
2021/04/06 08:43:29;;;;;;;7.63;1.70;;;;;;;3.18;74.22;101471.59;5137840;27;20027;-41
2021/04/06 08:45:55;;;;;;;10.25;1.83;;;;;;;3.19;74.27;101467.94;5138395;27;20059;-40
2021/04/06 08:48:52;;;;;;;4.97;1.45;;;;;;;3.13;74.87;101470.44;5138036;27;20450;-41
2021/04/06 08:51:23;;;;;;;6.78;1.58;;;;;;;3.07;75.67;101469.25;5138243;27;20041;-41
2021/04/06 08:53:51;;;;;;;7.53;1.60;;;;;;;3.07;74.12;101461.22;5137946;27;20027;-41
2021/04/06 08:56:21;;;;;;;4.60;1.25;;;;;;;3.14;75.39;101480.13;5137952;27;20027;-41
2021/04/06 08:58:46;;;;;;;6.57;2.03;;;;;;;2.95;76.19;101474.09;5137808;27;20030;-41
2021/04/06 09:01:11;;;;;;;4.13;1.27;;;;;;;2.82;76.27;101473.72;5137801;27;20460;-41
2021/04/06 09:03:37;;;;;;;4.47;1.10;;;;;;;2.61;77.30;101478.72;5138091;27;20031;-41
2021/04/06 09:06:13;;;;;;;6.40;1.20;;;;;;;2.43;77.57;101470.81;5138068;27;20336;-41
2021/04/06 09:08:45;;;;;;;3.53;1.38;;;;;;;2.32;77.35;101463.94;5137441;27;20026;-40
2021/04/06 09:11:11;;;;;;;2.63;0.80;;;;;;;2.30;77.15;101457.94;5138403;27;20050;-41
2021/04/06 09:13:36;;;;;;;3.30;0.70;;;;;;;2.50;77.81;101463.84;5137615;27;20019;-40
2021/04/06 09:16:03;;;;;;;3.67;1.00;;;;;;;2.80;77.23;101455.22;5137287;27;20015;-40
2021/04/06 09:18:37;;;;;;;2.97;0.90;;;;;;;3.13;76.93;101444.56;5137978;27;20031;-40
2021/04/06 09:21:08;;;;;;;2.72;1.05;;;;;;;3.61;76.38;101438.31;5137958;27;20410;-41
2021/04/06 09:23:38;;;;;;;5.28;1.98;;;;;;;3.94;76.59;101443.53;5137694;27;20023;-41
2021/04/06 09:26:11;;;;;;;6.85;1.77;;;;;;;3.91;73.19;101437.72;5137891;27;20370;-41
2021/04/06 09:28:36;;;;;;;8.07;1.63;;;;;;;3.84;73.33;101454.44;5137362;27;20114;-41
2021/04/06 09:31:05;;;;;;;4.97;1.27;;;;;;;3.59;73.60;101451.00;5136609;27;20408;-41
2021/04/06 09:33:31;;;;;;;3.20;0.90;;;;;;;3.29;71.90;101475.78;5137185;27;20023;-41
2021/04/06 09:35:56;;;;;;;1.93;0.60;;;;;;;2.88;70.83;101458.88;5137345;27;20034;-40
2021/04/06 09:38:23;;;;;;;3.13;0.93;;;;;;;2.60;72.61;101458.34;5137123;27;20029;-41
2021/04/06 09:40:50;;;;;;;1.92;0.63;;;;;;;2.35;74.55;101462.81;5137316;27;20471;-41
2021/04/06 09:43:15;;;;;;;;;;;;;;;2.32;74.43;101456.78;5137644;27;20164;-40
2021/04/06 09:45:41;;;;;;;4.50;1.15;;;;;;;2.11;75.98;101447.53;5137264;27;19908;-40
2021/04/06 09:48:07;;;;;;;3.60;1.37;;;;;;;2.11;76.53;101443.03;5137366;27;20062;-40
2021/04/06 09:50:32;;;;;;;4.78;1.00;;;;;;;2.13;76.73;101429.53;5137491;27;20582;-40
2021/04/06 09:52:59;;;;;;;3.53;1.00;;;;;;;2.19;75.70;101435.03;5137356;27;20106;-40
2021/04/06 09:55:25;;;;;;;;;;;;;;;2.33;76.01;101429.06;5137302;27;20031;-40
2021/04/06 09:57:54;;;;;;;1.77;0.60;;;;;;;2.60;74.52;101421.81;5137066;27;19914;-41
2021/04/06 10:00:28;;;;;;;3.88;0.70;;;;;;;2.91;73.27;101424.66;5136851;27;20023;-40
2021/04/06 10:03:05;;;;;;;3.10;0.77;;;;;;;3.19;72.46;101416.31;5136623;27;20490;-41
2021/04/06 10:05:31;;;;;;;3.65;0.80;;;;;;;3.43;71.72;101423.47;5137372;27;20027;-41
2021/04/06 10:07:56;;;;;;;3.40;0.80;;;;;;;3.61;70.71;101411.56;5136819;27;20475;-41
2021/04/06 10:10:29;;;;;;;2.23;0.63;;;;;;;3.87;70.05;101413.13;5136846;27;20027;-41
2021/04/06 10:12:56;;;;;;;3.20;0.90;;;;;;;4.00;68.70;101413.44;5136174;27;20023;-41
2021/04/06 10:15:27;;;;;;;4.53;1.10;;;;;;;4.20;68.91;101407.63;5136364;27;20030;-41
2021/04/06 10:17:53;;;;;;;3.15;0.82;;;;;;;4.47;68.55;101407.13;5136903;27;20026;-41
2021/04/06 10:20:24;;;;;;;2.47;0.85;;;;;;;4.73;67.43;101396.06;5136755;27;20030;-41
2021/04/06 10:22:57;;;;;;;3.50;0.85;;;;;;;4.98;66.74;101401.22;5136015;27;20470;-41
2021/04/06 10:25:35;;;;;;;4.47;1.02;;;;;;;5.00;67.40;101385.81;5136182;27;20483;-41
2021/04/06 10:28:03;;;;;;;2.08;0.60;;;;;;;4.75;64.28;101379.84;5136396;27;20026;-41
2021/04/06 10:30:37;;;;;;;4.53;1.20;;;;;;;4.58;68.16;101400.53;5136152;27;20035;-41
2021/04/06 10:33:12;;;;;;;4.90;1.20;;;;;;;4.12;67.76;101427.25;5136012;27;20039;-41
2021/04/06 10:35:58;;;;;;;4.47;1.20;;;;;;;3.48;70.78;101438.00;5136554;27;20102;-41
2021/04/06 10:38:35;;;;;;;4.07;1.00;;;;;;;2.91;72.71;101422.00;5135655;27;20115;-41
2021/04/06 10:41:23;;;;;;;;;;;;;;;2.86;72.52;101432.34;5136847;27;20030;-41
2021/04/06 10:43:50;;;;;;;3.90;0.93;;;;;;;2.59;73.93;101438.84;5135440;27;19918;-40
2021/04/06 10:46:20;;;;;;;6.32;1.50;;;;;;;2.50;74.75;101429.13;5136562;27;20023;-40
2021/04/06 10:48:48;;;;;;;4.53;1.10;;;;;;;2.58;75.48;101423.78;5135649;27;20023;-40
2021/04/06 10:51:22;;;;;;;4.90;1.27;;;;;;;2.77;75.15;101415.47;5135425;27;20038;-41
2021/04/06 10:54:07;;;;;;;4.55;1.17;;;;;;;2.88;75.24;101409.00;5135595;27;20106;-41
2021/04/06 10:56:41;;;;;;;4.03;0.95;;;;;;;3.08;75.26;101409.47;5135643;27;20102;-40
2021/04/06 10:59:09;;;;;;;3.40;1.05;;;;;;;3.27;75.23;101401.09;5136062;27;20451;-41
2021/04/06 11:01:48;;;;;;;5.00;1.08;;;;;;;3.63;74.07;101407.88;5135704;27;20113;-41
2021/04/06 11:04:16;;;;;;;3.13;0.90;;;;;;;3.79;71.98;101389.91;5135676;27;20367;-41
2021/04/06 11:06:48;;;;;;;2.83;0.77;;;;;;;3.93;71.99;101387.53;5135460;27;20043;-41
2021/04/06 11:09:19;;;;;;;3.05;1.10;;;;;;;4.07;70.94;101389.47;5135893;27;20034;-41
2021/04/06 11:11:46;;;;;;;4.97;1.40;;;;;;;4.17;70.41;101382.06;5136115;27;20388;-41
2021/04/06 11:14:15;;;;;;;2.75;0.90;;;;;;;4.35;71.07;101393.34;5135262;27;20027;-41
2021/04/06 11:16:42;;;;;;;5.35;1.20;;;;;;;4.49;71.14;101380.16;5135550;27;20027;-41
2021/04/06 11:19:14;;;;;;;3.50;1.08;;;;;;;4.68;69.74;101363.63;5134797;27;20478;-41
2021/04/06 11:21:43;;;;;;;5.65;1.38;;;;;;;4.68;69.40;101382.38;5135387;27;20023;-41
2021/04/06 11:24:09;;;;;;;6.85;1.40;;;;;;;4.28;70.02;101389.69;5135080;27;20027;-41
2021/04/06 11:26:35;;;;;;;4.55;1.20;;;;;;;3.78;70.89;101401.63;5135002;27;20027;-41
2021/04/06 11:29:03;;;;;;;3.08;1.00;;;;;;;3.22;72.56;101392.75;5134984;27;20030;-40
2021/04/06 11:31:29;;;;;;;3.60;0.77;;;;;;;2.95;73.48;101396.63;5135243;27;20095;-40
2021/04/06 11:33:56;;;;;;;4.47;1.23;;;;;;;2.78;73.46;101395.78;5134910;27;20023;-40
2021/04/06 11:36:21;;;;;;;5.38;1.15;;;;;;;2.66;73.74;101378.41;5135664;27;20252;-41
2021/04/06 11:38:48;;;;;;;3.67;1.07;;;;;;;2.46;74.79;101379.72;5135350;27;20033;-41
2021/04/06 11:41:13;;;;;;;;;;;;;;;2.51;74.27;101378.22;5135385;27;20276;-40
2021/04/06 11:43:39;;;;;;;3.70;1.13;;;;;;;2.36;75.74;101377.22;5134921;27;20014;-41
2021/04/06 11:46:04;;;;;;;4.70;1.40;;;;;;;2.28;75.12;101364.69;5115921;27;20099;-40
2021/04/06 11:48:29;;;;;;;3.57;1.10;;;;;;;2.26;75.60;101366.69;5134684;27;20083;-40